KMKY Airport Information

Runway Information
Runway 17 Length 5000 ft width 100 ft
Elevation 4 ft Threshold 0 ft Heading 168
Runway 35 Length 5000 ft Width 100 ft
Elevation 4 ft Threshold 0 ft Heading 348
Airport Frequencies
Type A/D Name FORT MYERS Frequency 119.75 MHZ
Type AWOS Name AWOS 3 Frequency 120.075 MHZ
Type CLD Name CLNC DEL Frequency 120.8 MHZ
Type UNIC Name CTAF/UNICO Frequency 122.8 MHZ
Airport Navaids
Airport Weather Information & NOTAM
ADDS - METARS form results

(0928 UTC 05 December 2020)
Data provider http://aviationweather.gov/metar/data/
 
METAR text: KMKY 050856Z AUTO 18007KT 10SM BKN100 20/19 A3004 RMK AO2 SLP173 T02000189 55002 TSNO $
Conditions at: KMKY (MARCO ISLAND , FL, US) observed 0856 UTC 05 December 2020
Temperature: 20.0°C (68°F)
Dewpoint: 18.9°C (66°F) [RH = 93%]
Pressure (altimeter): 30.04 inches Hg (1017.4 mb)
[Sea-level pressure: 1017.3 mb]
Winds: from the S (180 degrees) at 8 MPH (7 knots; 3.6 m/s)
Visibility: 10 or more miles (16+ km)
Ceiling: 10000 feet AGL
Clouds: broken clouds at 10000 feet AGL
Weather:
SOME DATA ABOVE MAY BE INACCURATE!!!
"$" is an indication the sensor requires maintenance